Bookmark and Share
Track history (hours):
 

Bremen Bridge

Last reported at 2013-Jun-26 03:05 UTC. Time now 2014-Apr-20 15:57 UTC.
Position N 22°15' E 114°06'.
Warning: this ship's position is months out of date.

NotesDate/timePositionNaut miles runAvg speedWind from/ knotsBaromVisibWave heightAir tempDewpointWater temp
2013-Jun-26 03:05N 22°15' E 114°06'0 0.0
2013-Jun-25 22:29N 22°15' E 114°06'0 0.0
2013-Jun-25 20:29N 22°15' E 114°06'0 0.0
2013-Jun-25 19:17N 22°15' E 114°06'0 0.0
2013-Jun-25 18:23N 22°15' E 114°06'0 0.1
2013-Jun-25 17:29N 22°15' E 114°06'0 0.1
2013-Jun-25 16:17N 22°15' E 114°06'0 0.0
2013-Jun-25 12:11N 22°15' E 114°06'0 0.0
2013-Jun-25 11:17N 22°15' E 114°06'0 0.0
2013-Jun-25 10:17N 22°15' E 114°06'0 0.1
2013-Jun-25 09:17N 22°15' E 114°06'0 0.1
2013-Jun-25 08:29N 22°15' E 114°06'0 0.1
2013-Jun-25 05:17N 22°15' E 114°06'0 0.0
2013-Jun-25 03:29N 22°15' E 114°06'0 0.0
2013-Jun-24 23:23N 22°16' E 114°06'0 0.0
2013-Jun-24 22:29N 22°16' E 114°06'0 0.0
2013-Jun-24 20:23N 22°15' E 114°06'0 0.0
2013-Jun-24 19:23N 22°15' E 114°06'0 0.0
2013-Jun-24 16:11N 22°16' E 114°06'0 0.0
2013-Jun-24 15:29N 22°16' E 114°06'0 0.0
2013-Jun-24 00:11N 22°16' E 114°06'0 0.0
2013-Jun-23 14:14N 22°16' E 114°06'0 0.0
2013-Jun-23 12:32N 22°16' E 114°06'0 0.0
2013-Jun-23 10:26N 22°16' E 114°06'0 0.1
2013-Jun-23 09:11N 22°15' E 114°06'0 0.1
2013-Jun-23 08:11N 22°15' E 114°06'0 0.0
2013-Jun-23 07:11N 22°15' E 114°06'0 0.0
2013-Jun-23 06:23N 22°15' E 114°06'0 0.0
2013-Jun-23 05:32N 22°15' E 114°06'0 0.0
2013-Jun-23 04:26N 22°15' E 114°06'0 0.0
2013-Jun-23 03:29N 22°15' E 114°06'0 0.1
2013-Jun-23 01:23N 22°15' E 114°06'0 0.1
2013-Jun-22 22:17N 22°15' E 114°06'0 0.0
2013-Jun-22 21:11N 22°15' E 114°06'0 0.1
2013-Jun-22 20:32N 22°15' E 114°06'0 0.1
2013-Jun-22 19:32N 22°15' E 114°06'0 0.0
2013-Jun-22 18:32N 22°15' E 114°06'3 0.5
2013-Jun-22 13:14N 22°18' E 114°06'2 0.8
2013-Jun-22 10:28N 22°19' E 114°07'0 0.0
2013-Jun-22 09:28N 22°19' E 114°07'0 0.0
2013-Jun-22 05:22N 22°19' E 114°07'0 0.0
2013-Jun-22 04:04N 22°19' E 114°07'0 0.0
2013-Jun-22 03:16N 22°19' E 114°07'0 0.0
2013-Jun-22 01:10N 22°19' E 114°07'0 0.0
2013-Jun-22 00:16N 22°19' E 114°07'0 0.0
2013-Jun-21 23:28N 22°19' E 114°07'0 0.0
2013-Jun-21 22:22N 22°19' E 114°07'0 0.1
2013-Jun-21 21:28N 22°19' E 114°07'0 0.1
2013-Jun-21 20:22N 22°19' E 114°07'0 0.0
2013-Jun-21 19:28N 22°19' E 114°07'0 0.1
2013-Jun-21 18:28N 22°19' E 114°07'0 0.1
2013-Jun-21 17:28N 22°19' E 114°07'0 0.1
2013-Jun-21 16:28N 22°19' E 114°07'0 0.1
2013-Jun-21 15:28N 22°19' E 114°07'4 3.8
2013-Jun-21 14:31N 22°16' E 114°07'8 7.8
2013-Jun-21 13:32N 22°10' E 114°13'30316.0
2013-Jun-20 18:32N 22°30' E 119°40'1818.6
2013-Jun-20 17:33N 22°32' E 119°59'1717.2
2013-Jun-20 16:33N 22°33' E 120°18'2 1.7
2013-Jun-20 15:32N 22°33' E 120°20'0 0.0
2013-Jun-20 14:26N 22°33' E 120°20'0 0.0
2013-Jun-20 13:20N 22°33' E 120°20'0 0.0
2013-Jun-20 12:32N 22°33' E 120°20'0 0.0
2013-Jun-20 11:32N 22°33' E 120°20'0 0.0
2013-Jun-20 10:32N 22°33' E 120°20'2 1.6
2013-Jun-20 09:33N 22°33' E 120°18'5 5.3
2013-Jun-20 08:33N 22°31' E 120°13'1312.8
2013-Jun-20 07:33N 22°20' E 120°05'1513.4
2013-Jun-20 06:26N 22°08' E 119°56'2713.6
2013-Jun-20 04:25N 21°45' E 119°40'1213.5
2013-Jun-20 03:33N 21°35' E 119°33'1513.6
2013-Jun-20 02:27N 21°23' E 119°24'1213.4
2013-Jun-20 01:32N 21°12' E 119°17'  

Dump ship's entire track history

sailing weather and tide predictions

Bremen Bridge — H9NC — position and weather